createdAt,value
2019-01-21T00:01:52.691Z,10.40
2019-01-21T00:04:21.979Z,10.83
2019-01-21T00:06:50.563Z,10.40
2019-01-21T00:09:19.463Z,10.97
2019-01-21T00:11:48.066Z,10.67
2019-01-21T00:14:16.876Z,10.93
2019-01-21T00:16:45.519Z,10.80
2019-01-21T00:19:13.633Z,11.60
2019-01-21T00:21:42.780Z,11.73
2019-01-21T00:24:11.183Z,10.93
2019-01-21T00:26:39.331Z,11.20
2019-01-21T00:29:08.836Z,10.50
2019-01-21T00:31:37.332Z,9.40
2019-01-21T00:34:05.690Z,11.07
2019-01-21T00:36:35.348Z,10.27
2019-01-21T00:39:05.859Z,10.50
2019-01-21T00:41:34.323Z,10.47
2019-01-21T00:44:02.803Z,11.73
2019-01-21T00:46:31.187Z,10.20
2019-01-21T00:48:59.256Z,10.80
2019-01-21T00:51:27.945Z,10.90
2019-01-21T00:53:56.210Z,10.27
2019-01-21T00:56:24.591Z,11.47
2019-01-21T00:58:53.203Z,10.97
2019-01-21T01:01:21.519Z,11.30
2019-01-21T01:03:49.787Z,10.10
2019-01-21T01:06:18.143Z,10.50
2019-01-21T01:08:46.595Z,10.20
2019-01-21T01:11:15.387Z,11.37
2019-01-21T01:13:43.687Z,10.43
2019-01-21T01:16:12.150Z,14.07
2019-01-21T01:18:40.615Z,25.10
2019-01-21T01:21:09.463Z,12.13
2019-01-21T01:23:37.816Z,10.43
2019-01-21T01:26:05.644Z,9.37
2019-01-21T01:28:34.219Z,9.80
2019-01-21T01:31:03.532Z,10.40
2019-01-21T01:33:31.914Z,10.40
2019-01-21T01:36:01.340Z,10.60
2019-01-21T01:38:29.383Z,10.67
2019-01-21T01:40:57.863Z,10.80
2019-01-21T01:43:26.755Z,11.40
2019-01-21T01:45:55.347Z,9.40
2019-01-21T01:48:24.858Z,11.30
2019-01-21T01:50:53.641Z,11.80
2019-01-21T01:53:22.008Z,10.40
2019-01-21T01:55:50.491Z,10.60
2019-01-21T01:58:18.887Z,10.53
2019-01-21T02:00:47.860Z,10.13
2019-01-21T02:03:17.987Z,11.67
2019-01-21T02:05:46.658Z,11.17
2019-01-21T02:08:15.367Z,11.17
2019-01-21T02:10:44.355Z,11.00
2019-01-21T02:13:13.025Z,10.00
2019-01-21T02:15:42.127Z,10.17
2019-01-21T02:18:11.010Z,10.20
2019-01-21T02:20:39.408Z,10.23
2019-01-21T02:23:11.078Z,11.20
2019-01-21T02:26:01.153Z,9.90
2019-01-21T02:28:45.331Z,9.60
2019-01-21T02:32:07.653Z,10.37
2019-01-21T02:35:04.316Z,10.37
2019-01-21T02:38:10.436Z,10.50
2019-01-21T02:41:38.520Z,9.87
2019-01-21T02:44:27.480Z,9.77
2019-01-21T02:47:33.277Z,9.33
2019-01-21T02:50:46.171Z,9.50
2019-01-21T02:53:55.447Z,9.20
2019-01-21T02:56:58.695Z,10.20
2019-01-21T03:00:05.073Z,10.37
2019-01-21T03:03:09.887Z,10.33
2019-01-21T03:06:09.318Z,10.10
2019-01-21T03:09:14.760Z,9.60
2019-01-21T03:12:36.789Z,9.10
2019-01-21T03:15:14.899Z,10.17
2019-01-21T03:18:27.923Z,10.03
2019-01-21T03:21:31.013Z,9.57
2019-01-21T03:24:37.691Z,10.17
2019-01-21T03:27:38.319Z,9.53
2019-01-21T03:30:53.799Z,10.27
2019-01-21T03:34:03.251Z,10.60
2019-01-21T03:36:53.145Z,9.17
2019-01-21T03:39:52.599Z,10.10
2019-01-21T03:42:47.231Z,10.80
2019-01-21T03:45:34.668Z,9.47
2019-01-21T03:48:18.456Z,9.50
2019-01-21T03:51:28.777Z,8.90
2019-01-21T03:54:10.552Z,9.80
2019-01-21T03:57:14.148Z,11.03
2019-01-21T04:00:25.566Z,9.80
2019-01-21T04:03:08.056Z,10.93
2019-01-21T04:06:02.335Z,10.33
2019-01-21T04:09:11.267Z,10.30
2019-01-21T04:12:06.783Z,8.97
2019-01-21T04:15:25.761Z,10.93
2019-01-21T04:18:35.606Z,10.77
2019-01-21T04:21:32.556Z,9.60
2019-01-21T04:24:33.715Z,9.90
2019-01-21T04:27:27.979Z,10.70
2019-01-21T04:30:11.316Z,10.00
2019-01-21T04:33:07.639Z,9.43
2019-01-21T04:36:22.507Z,9.20
2019-01-21T04:38:57.509Z,9.90
2019-01-21T04:41:45.899Z,9.10
2019-01-21T04:44:43.489Z,9.13
2019-01-21T04:47:46.549Z,10.00
2019-01-21T04:51:03.069Z,9.20
2019-01-21T04:54:13.328Z,9.40
2019-01-21T04:57:15.804Z,8.77
2019-01-21T05:00:25.148Z,9.53
2019-01-21T05:03:41.143Z,9.73
2019-01-21T05:06:45.975Z,8.83
2019-01-21T05:10:10.944Z,10.37
2019-01-21T05:12:56.972Z,9.87
2019-01-21T05:16:06.211Z,11.20
2019-01-21T05:19:21.693Z,9.43
2019-01-21T05:22:28.056Z,10.20
2019-01-21T05:25:37.999Z,9.10
2019-01-21T05:28:27.585Z,11.70
2019-01-21T05:31:26.987Z,11.03
2019-01-21T05:34:56.404Z,10.57
2019-01-21T05:37:54.363Z,9.40
2019-01-21T05:41:03.431Z,9.90
2019-01-21T05:44:09.777Z,10.10
2019-01-21T05:47:33.556Z,8.23
2019-01-21T05:50:27.219Z,9.37
2019-01-21T05:53:23.143Z,9.07
2019-01-21T05:56:32.785Z,9.10
2019-01-21T05:59:32.630Z,9.93
2019-01-21T06:02:28.019Z,10.10
2019-01-21T06:05:40.437Z,9.10
2019-01-21T06:08:53.403Z,8.97
2019-01-21T06:11:28.652Z,9.43
2019-01-21T06:14:12.289Z,9.53
2019-01-21T06:17:17.891Z,9.50
2019-01-21T06:20:10.480Z,10.00
2019-01-21T06:23:08.813Z,9.17
2019-01-21T06:26:12.728Z,9.90
2019-01-21T06:29:28.307Z,9.00
2019-01-21T06:32:24.107Z,9.40
2019-01-21T06:36:02.034Z,9.97
2019-01-21T06:39:11.574Z,10.20
2019-01-21T06:42:01.237Z,9.03
2019-01-21T06:44:51.031Z,9.80
2019-01-21T06:48:01.311Z,10.50
2019-01-21T06:51:11.877Z,9.07
2019-01-21T06:53:58.307Z,9.10
2019-01-21T06:56:58.876Z,9.57
2019-01-21T06:59:58.019Z,8.93
2019-01-21T07:02:56.324Z,9.87
2019-01-21T07:06:13.816Z,10.10
2019-01-21T07:09:19.975Z,9.30
2019-01-21T07:11:57.064Z,9.97
2019-01-21T07:14:58.207Z,9.37
2019-01-21T07:17:38.355Z,10.13
2019-01-21T07:20:35.524Z,10.20
2019-01-21T07:23:35.837Z,9.90
2019-01-21T07:26:36.895Z,10.77
2019-01-21T07:29:34.704Z,11.87
2019-01-21T07:32:29.034Z,11.00
2019-01-21T07:35:34.377Z,11.00
2019-01-21T07:38:18.627Z,10.90
2019-01-21T07:41:16.006Z,10.93
2019-01-21T07:44:30.676Z,10.10
2019-01-21T07:47:38.460Z,10.10
2019-01-21T07:50:31.022Z,10.23
2019-01-21T07:53:49.052Z,10.50
2019-01-21T07:56:49.678Z,9.90
2019-01-21T07:59:58.760Z,10.43
2019-01-21T08:02:55.059Z,11.90
2019-01-21T08:06:03.689Z,11.30
2019-01-21T08:09:05.439Z,11.40
2019-01-21T08:11:59.663Z,9.87
2019-01-21T08:15:14.699Z,11.10
2019-01-21T08:18:34.286Z,11.37
2019-01-21T08:21:39.914Z,10.07
2019-01-21T08:24:34.427Z,12.93
2019-01-21T08:27:15.191Z,10.50
2019-01-21T08:29:56.149Z,10.57
2019-01-21T08:33:01.564Z,10.50
2019-01-21T08:35:54.255Z,11.13
2019-01-21T08:38:36.279Z,12.70
2019-01-21T08:41:32.598Z,12.80
2019-01-21T08:44:39.161Z,13.00
2019-01-21T08:47:33.447Z,12.20
2019-01-21T08:50:39.103Z,13.43
2019-01-21T08:53:32.475Z,12.80
2019-01-21T08:56:41.595Z,11.00
2019-01-21T08:59:43.363Z,12.50
2019-01-21T09:02:39.899Z,13.40
2019-01-21T09:05:48.707Z,13.77
2019-01-21T09:08:53.671Z,11.90
2019-01-21T09:12:15.359Z,12.57
2019-01-21T09:15:13.568Z,12.37
2019-01-21T09:18:10.324Z,11.03
2019-01-21T09:20:54.446Z,10.97
2019-01-21T09:23:35.124Z,12.23
2019-01-21T09:26:13.446Z,15.70
2019-01-21T09:29:15.109Z,28.80
2019-01-21T09:32:18.724Z,11.40
2019-01-21T09:35:10.635Z,10.93
2019-01-21T09:38:06.259Z,10.50
2019-01-21T09:40:57.836Z,12.17
2019-01-21T09:43:50.006Z,10.50
2019-01-21T09:46:46.407Z,9.93
2019-01-21T09:49:13.327Z,11.63
2019-01-21T09:51:49.673Z,10.90
2019-01-21T09:54:19.843Z,11.50
2019-01-21T09:56:48.819Z,10.60
2019-01-21T09:59:18.132Z,10.50
2019-01-21T10:01:47.316Z,11.30
2019-01-21T10:04:22.794Z,11.90
2019-01-21T10:07:16.569Z,10.60
2019-01-21T10:10:16.404Z,10.77
2019-01-21T10:13:31.683Z,11.40
2019-01-21T10:16:12.363Z,11.77
2019-01-21T10:18:53.599Z,11.03
2019-01-21T10:21:57.907Z,10.67
2019-01-21T10:25:11.575Z,11.87
2019-01-21T10:28:10.255Z,10.60
2019-01-21T10:31:12.579Z,11.43
2019-01-21T10:34:15.508Z,10.90
2019-01-21T10:37:50.196Z,9.90
2019-01-21T10:40:50.677Z,10.20
2019-01-21T10:44:15.503Z,10.00
2019-01-21T10:47:19.858Z,10.67
2019-01-21T10:50:26.919Z,10.47
2019-01-21T10:53:16.031Z,11.20
2019-01-21T10:56:18.715Z,10.67
2019-01-21T10:59:39.656Z,11.13
2019-01-21T11:02:26.391Z,10.90
2019-01-21T11:05:22.088Z,11.30
2019-01-21T11:08:18.394Z,10.83
2019-01-21T11:11:27.758Z,9.33
2019-01-21T11:14:46.740Z,11.33
2019-01-21T11:17:54.880Z,10.40
2019-01-21T11:21:09.141Z,11.13
2019-01-21T11:24:02.058Z,11.00
2019-01-21T11:27:15.693Z,10.80
2019-01-21T11:30:35.061Z,11.20
2019-01-21T11:34:03.355Z,10.80
2019-01-21T11:37:13.603Z,9.87
2019-01-21T11:40:15.129Z,10.30
2019-01-21T11:43:11.887Z,9.27
2019-01-21T11:46:06.712Z,10.13
2019-01-21T11:49:02.347Z,20.77
2019-01-21T11:52:11.767Z,11.50
2019-01-21T11:55:03.764Z,10.70
2019-01-21T11:58:13.523Z,10.77
2019-01-21T12:00:54.291Z,9.67
2019-01-21T12:03:32.509Z,12.03
2019-01-21T12:06:17.924Z,11.23
2019-01-21T12:09:13.342Z,12.27
2019-01-21T12:11:46.234Z,11.13
2019-01-21T12:14:28.475Z,10.63
2019-01-21T12:17:27.164Z,10.23
2019-01-21T12:20:08.777Z,10.93
2019-01-21T12:23:31.295Z,11.70
2019-01-21T12:26:40.716Z,11.00
2019-01-21T12:29:55.256Z,11.67
2019-01-21T12:32:39.483Z,11.90
2019-01-21T12:35:34.863Z,11.47
2019-01-21T12:38:35.392Z,11.20
2019-01-21T12:41:34.525Z,11.73
2019-01-21T12:45:11.215Z,11.60
2019-01-21T12:47:54.392Z,11.80
2019-01-21T12:51:01.147Z,12.50
2019-01-21T12:53:54.383Z,11.27
2019-01-21T12:57:10.227Z,12.17
2019-01-21T13:00:44.371Z,12.13
2019-01-21T13:03:42.283Z,13.10
2019-01-21T13:06:19.393Z,12.83
2019-01-21T13:09:26.847Z,11.80
2019-01-21T13:12:12.465Z,11.83
2019-01-21T13:14:56.856Z,12.17
2019-01-21T13:17:53.628Z,10.23
2019-01-21T13:20:43.852Z,11.53
2019-01-21T13:23:32.507Z,12.00
2019-01-21T13:26:42.491Z,12.00
2019-01-21T13:29:44.487Z,11.47
2019-01-21T13:33:01.528Z,11.50
2019-01-21T13:35:54.476Z,11.30
2019-01-21T13:39:06.043Z,12.57
2019-01-21T13:42:04.335Z,12.27
2019-01-21T13:45:17.099Z,12.20
2019-01-21T13:48:01.440Z,11.50
2019-01-21T13:50:41.079Z,12.47
2019-01-21T13:53:46.407Z,12.03
2019-01-21T13:56:49.375Z,13.33
2019-01-21T13:59:58.004Z,12.17
2019-01-21T14:02:37.644Z,12.10
2019-01-21T14:06:00.599Z,12.47
2019-01-21T14:09:03.747Z,13.17
2019-01-21T14:11:53.908Z,12.83
2019-01-21T14:14:54.704Z,12.53
2019-01-21T14:18:00.147Z,12.10
2019-01-21T14:21:05.611Z,13.43
2019-01-21T14:23:47.095Z,11.40
2019-01-21T14:26:42.806Z,12.63
2019-01-21T14:29:23.212Z,13.80
2019-01-21T14:32:42.935Z,11.80
2019-01-21T14:35:47.412Z,13.80
2019-01-21T14:38:55.109Z,13.03
2019-01-21T14:42:01.152Z,12.83
2019-01-21T14:45:19.607Z,13.80
2019-01-21T14:48:27.952Z,12.70
2019-01-21T14:51:25.828Z,13.10
2019-01-21T14:54:41.100Z,13.33
2019-01-21T14:57:48.148Z,15.87
2019-01-21T15:00:58.379Z,17.50
2019-01-21T15:03:58.678Z,14.13
2019-01-21T15:07:03.082Z,12.80
2019-01-21T15:10:10.383Z,12.87
2019-01-21T15:13:10.183Z,13.87
2019-01-21T15:16:24.720Z,14.13
2019-01-21T15:19:43.738Z,13.60
2019-01-21T15:22:18.250Z,14.30
2019-01-21T15:25:22.425Z,14.57
2019-01-21T15:28:40.031Z,14.70
2019-01-21T15:31:47.677Z,15.10
2019-01-21T15:34:54.529Z,15.00
2019-01-21T15:37:53.941Z,13.97
2019-01-21T15:41:13.428Z,15.90
2019-01-21T15:44:14.599Z,14.17
2019-01-21T15:47:05.769Z,14.43
2019-01-21T15:49:44.135Z,14.80
2019-01-21T15:52:40.407Z,15.10
2019-01-21T15:55:49.153Z,15.00
2019-01-21T15:58:41.083Z,15.97
2019-01-21T16:01:55.692Z,15.23
2019-01-21T16:05:08.956Z,15.57
2019-01-21T16:07:49.655Z,14.97
2019-01-21T16:11:14.223Z,16.90
2019-01-21T16:13:51.991Z,16.07
2019-01-21T16:16:57.496Z,14.50
2019-01-21T16:19:41.993Z,17.17
2019-01-21T16:22:48.248Z,16.30
2019-01-21T16:25:46.585Z,15.83
2019-01-21T16:28:40.827Z,15.17
2019-01-21T16:31:30.623Z,16.10
2019-01-21T16:34:39.407Z,15.80
2019-01-21T16:38:02.212Z,15.50
2019-01-21T16:40:41.635Z,15.00
2019-01-21T16:43:09.759Z,15.80
2019-01-21T16:45:38.407Z,20.80
2019-01-21T16:48:08.611Z,18.53
2019-01-21T16:50:36.808Z,20.70
2019-01-21T16:53:04.988Z,24.30
2019-01-21T16:55:33.409Z,20.43
2019-01-21T16:58:02.100Z,19.33
2019-01-21T17:00:31.499Z,12.53
2019-01-21T17:02:59.535Z,12.93
2019-01-21T17:05:28.178Z,13.23
2019-01-21T17:07:56.171Z,13.60
2019-01-21T17:10:25.117Z,12.33
2019-01-21T17:12:53.695Z,12.70
2019-01-21T17:15:22.178Z,13.73
2019-01-21T17:17:52.506Z,13.53
2019-01-21T17:20:20.876Z,14.17
2019-01-21T17:22:49.575Z,13.40
2019-01-21T17:25:18.863Z,12.63
2019-01-21T17:27:47.359Z,12.87
2019-01-21T17:30:17.611Z,13.80
2019-01-21T17:32:45.964Z,13.53
2019-01-21T17:35:14.643Z,12.93
2019-01-21T17:37:43.032Z,12.80
2019-01-21T17:40:12.867Z,12.37
2019-01-21T17:42:41.467Z,12.70
2019-01-21T17:45:13.140Z,13.90
2019-01-21T17:47:43.489Z,14.10
2019-01-21T17:50:13.634Z,15.30
2019-01-21T17:52:42.985Z,15.63
2019-01-21T17:55:13.285Z,14.53
2019-01-21T17:57:41.608Z,14.50
2019-01-21T18:00:16.243Z,14.10
2019-01-21T18:02:45.377Z,13.83
2019-01-21T18:05:13.608Z,16.20
2019-01-21T18:07:42.028Z,15.80
2019-01-21T18:10:13.435Z,15.80
2019-01-21T18:12:40.684Z,13.47
2019-01-21T18:15:12.101Z,13.60
2019-01-21T18:17:41.934Z,14.40
2019-01-21T18:20:16.623Z,14.97
2019-01-21T18:23:24.187Z,18.90
2019-01-21T18:26:06.924Z,14.87
2019-01-21T18:28:44.116Z,15.90
2019-01-21T18:34:40.616Z,17.00
2019-01-21T18:37:28.605Z,17.10
2019-01-21T18:39:57.111Z,17.87
2019-01-21T18:42:25.716Z,16.13
2019-01-21T18:44:55.445Z,17.20
2019-01-21T18:47:24.146Z,16.03
2019-01-21T18:49:54.183Z,15.93
2019-01-21T18:52:22.389Z,16.27
2019-01-21T18:54:50.366Z,16.93
2019-01-21T18:57:18.776Z,17.33
2019-01-21T18:59:47.688Z,17.17
2019-01-21T19:02:15.787Z,18.30
2019-01-21T19:04:44.159Z,18.77
2019-01-21T19:07:12.387Z,17.97
2019-01-21T19:09:40.460Z,17.60
2019-01-21T19:12:08.679Z,16.33
2019-01-21T19:14:36.835Z,16.00
2019-01-21T19:17:05.878Z,16.00
2019-01-21T19:19:33.938Z,16.23
2019-01-21T19:22:01.743Z,15.00
2019-01-21T19:24:30.312Z,15.70
2019-01-21T19:26:59.040Z,15.90
2019-01-21T19:29:27.325Z,15.13
2019-01-21T19:31:56.775Z,15.80
2019-01-21T19:34:25.138Z,15.73
2019-01-21T19:36:55.833Z,16.47
2019-01-21T19:39:24.230Z,16.17
2019-01-21T19:41:52.194Z,16.70
2019-01-21T19:44:20.869Z,16.40
2019-01-21T19:46:51.194Z,15.77
2019-01-21T19:49:19.393Z,16.87
2019-01-21T19:51:47.763Z,15.63
2019-01-21T19:54:16.007Z,15.20
2019-01-21T19:56:44.208Z,15.40
2019-01-21T19:59:13.366Z,19.47
2019-01-21T20:01:41.836Z,17.80
2019-01-21T20:04:10.644Z,17.93
2019-01-21T20:06:39.287Z,16.80
2019-01-21T20:09:08.190Z,17.33
2019-01-21T20:11:36.502Z,15.70
2019-01-21T20:14:05.987Z,15.37
2019-01-21T20:16:36.223Z,15.33
2019-01-21T20:19:05.072Z,14.13
2019-01-21T20:21:33.792Z,15.23
2019-01-21T20:24:01.771Z,14.50
2019-01-21T20:26:30.106Z,14.10
2019-01-21T20:28:59.005Z,13.47
2019-01-21T20:31:27.087Z,14.90
2019-01-21T20:33:55.305Z,13.63
2019-01-21T20:36:23.311Z,12.87
2019-01-21T20:38:51.368Z,12.30
2019-01-21T20:41:19.612Z,13.67
2019-01-21T20:43:47.742Z,15.07
2019-01-21T20:46:16.792Z,13.50
2019-01-21T20:48:45.033Z,14.40
2019-01-21T20:51:13.622Z,13.23
2019-01-21T20:53:41.603Z,12.40
2019-01-21T20:56:09.903Z,14.47
2019-01-21T20:58:43.133Z,13.17
2019-01-21T21:01:11.027Z,13.67
2019-01-21T21:03:40.984Z,14.93
2019-01-21T21:06:09.611Z,14.60
2019-01-21T21:08:38.507Z,14.10
2019-01-21T21:11:07.339Z,15.10
2019-01-21T21:13:35.881Z,13.40
2019-01-21T21:16:04.312Z,14.30
2019-01-21T21:18:32.997Z,14.40
2019-01-21T21:21:01.558Z,14.00
2019-01-21T21:23:29.603Z,14.20
2019-01-21T21:25:58.414Z,13.43
2019-01-21T21:28:29.805Z,15.47
2019-01-21T21:30:57.708Z,14.07
2019-01-21T21:33:26.675Z,14.30
2019-01-21T21:35:54.960Z,13.53
2019-01-21T21:38:23.521Z,12.80
2019-01-21T21:40:52.247Z,14.60
2019-01-21T21:43:20.038Z,13.23
2019-01-21T21:45:47.722Z,14.43
2019-01-21T21:48:15.899Z,14.00
2019-01-21T21:50:43.811Z,14.13
2019-01-21T21:53:12.424Z,13.63
2019-01-21T21:55:40.406Z,12.73
2019-01-21T21:58:09.661Z,12.53
2019-01-21T22:00:38.087Z,14.10
2019-01-21T22:03:08.602Z,19.00
2019-01-21T22:05:36.983Z,13.07
2019-01-21T22:08:05.449Z,13.40
2019-01-21T22:10:33.839Z,13.90
2019-01-21T22:13:03.459Z,14.57
2019-01-21T22:15:42.172Z,19.03
2019-01-21T22:18:11.052Z,18.20
2019-01-21T22:20:39.667Z,16.90
2019-01-21T22:23:09.455Z,12.80
2019-01-21T22:25:37.583Z,12.10
2019-01-21T22:28:05.605Z,11.60
2019-01-21T22:30:34.603Z,12.77
2019-01-21T22:33:02.732Z,13.17
2019-01-21T22:35:31.593Z,12.20
2019-01-21T22:38:00.126Z,11.90
2019-01-21T22:40:30.128Z,15.40
2019-01-21T22:42:58.763Z,13.17
2019-01-21T22:45:27.741Z,13.13
2019-01-21T22:47:56.523Z,14.18
2019-01-21T22:50:25.419Z,14.03
2019-01-21T22:52:54.228Z,14.53
2019-01-21T22:55:22.592Z,14.90
2019-01-21T22:57:50.558Z,14.80
2019-01-21T23:00:49.687Z,14.20
2019-01-21T23:03:18.535Z,12.33
2019-01-21T23:05:47.121Z,11.13
2019-01-21T23:08:16.130Z,12.10
2019-01-21T23:10:45.320Z,12.00
2019-01-21T23:13:14.978Z,12.53
2019-01-21T23:15:42.898Z,11.17
2019-01-21T23:18:11.261Z,12.03
2019-01-21T23:20:39.440Z,12.83
2019-01-21T23:23:08.535Z,12.30
2019-01-21T23:25:37.737Z,10.47
2019-01-21T23:28:06.530Z,11.47
2019-01-21T23:30:34.967Z,10.17
2019-01-21T23:33:03.212Z,12.20
2019-01-21T23:35:32.190Z,11.10
2019-01-21T23:38:01.067Z,11.53
2019-01-21T23:40:29.455Z,10.30
2019-01-21T23:42:58.025Z,10.77
2019-01-21T23:45:26.103Z,12.57
2019-01-21T23:47:54.279Z,11.13
2019-01-21T23:50:24.095Z,13.07
2019-01-21T23:52:56.154Z,11.97
2019-01-21T23:55:24.835Z,11.30
2019-01-21T23:57:53.423Z,11.90
